sensor_id;sensor_type;location;lat;lon;timestamp;temperature;humidity
7388;DHT22;3735;50.136;11.062;2023-04-29T00:02:12;11.70;99.90
7388;DHT22;3735;50.136;11.062;2023-04-29T00:04:38;11.70;99.90
7388;DHT22;3735;50.136;11.062;2023-04-29T00:07:04;11.80;99.90
7388;DHT22;3735;50.136;11.062;2023-04-29T00:09:29;11.80;99.90
7388;DHT22;3735;50.136;11.062;2023-04-29T00:11:55;11.80;99.90
7388;DHT22;3735;50.136;11.062;2023-04-29T00:14:21;12.00;99.90
7388;DHT22;3735;50.136;11.062;2023-04-29T00:16:47;12.00;99.90
7388;DHT22;3735;50.136;11.062;2023-04-29T00:19:12;12.10;99.90
7388;DHT22;3735;50.136;11.062;2023-04-29T00:21:38;12.10;99.90
7388;DHT22;3735;50.136;11.062;2023-04-29T00:24:04;12.10;99.90
7388;DHT22;3735;50.136;11.062;2023-04-29T00:26:30;12.20;99.90
7388;DHT22;3735;50.136;11.062;2023-04-29T00:28:56;12.10;99.90
7388;DHT22;3735;50.136;11.062;2023-04-29T00:31:22;12.20;99.90
7388;DHT22;3735;50.136;11.062;2023-04-29T00:33:48;12.20;99.90
7388;DHT22;3735;50.136;11.062;2023-04-29T00:36:13;12.10;99.90
7388;DHT22;3735;50.136;11.062;2023-04-29T00:38:39;12.10;99.90
7388;DHT22;3735;50.136;11.062;2023-04-29T00:41:05;12.10;99.90
7388;DHT22;3735;50.136;11.062;2023-04-29T00:43:31;12.10;99.90
7388;DHT22;3735;50.136;11.062;2023-04-29T00:45:56;12.10;99.90
7388;DHT22;3735;50.136;11.062;2023-04-29T00:48:22;12.10;99.90
7388;DHT22;3735;50.136;11.062;2023-04-29T00:50:48;12.10;99.90
7388;DHT22;3735;50.136;11.062;2023-04-29T00:53:15;12.20;99.90
7388;DHT22;3735;50.136;11.062;2023-04-29T00:55:43;12.20;99.90
7388;DHT22;3735;50.136;11.062;2023-04-29T00:58:11;12.20;99.90
7388;DHT22;3735;50.136;11.062;2023-04-29T01:00:37;12.10;99.90
7388;DHT22;3735;50.136;11.062;2023-04-29T01:03:04;12.10;99.90
7388;DHT22;3735;50.136;11.062;2023-04-29T01:05:30;12.20;99.90
7388;DHT22;3735;50.136;11.062;2023-04-29T01:08:33;12.20;99.90
7388;DHT22;3735;50.136;11.062;2023-04-29T01:11:07;12.20;99.90
7388;DHT22;3735;50.136;11.062;2023-04-29T01:16:24;12.10;99.90
7388;DHT22;3735;50.136;11.062;2023-04-29T01:19:03;12.00;99.90
7388;DHT22;3735;50.136;11.062;2023-04-29T01:21:50;12.00;99.90
7388;DHT22;3735;50.136;11.062;2023-04-29T01:24:16;11.90;99.90
7388;DHT22;3735;50.136;11.062;2023-04-29T01:26:53;11.90;99.90
7388;DHT22;3735;50.136;11.062;2023-04-29T01:30:07;11.90;99.90
7388;DHT22;3735;50.136;11.062;2023-04-29T01:33:09;11.80;99.90
7388;DHT22;3735;50.136;11.062;2023-04-29T01:42:19;11.60;99.90
7388;DHT22;3735;50.136;11.062;2023-04-29T01:44:52;11.50;99.90
7388;DHT22;3735;50.136;11.062;2023-04-29T01:47:21;11.50;99.90
7388;DHT22;3735;50.136;11.062;2023-04-29T01:49:48;11.40;99.90
7388;DHT22;3735;50.136;11.062;2023-04-29T01:52:14;11.30;99.90
7388;DHT22;3735;50.136;11.062;2023-04-29T01:54:40;11.30;99.90
7388;DHT22;3735;50.136;11.062;2023-04-29T01:57:05;11.30;99.90
7388;DHT22;3735;50.136;11.062;2023-04-29T01:59:31;11.30;99.90
7388;DHT22;3735;50.136;11.062;2023-04-29T02:01:57;11.40;99.90
7388;DHT22;3735;50.136;11.062;2023-04-29T02:04:23;11.40;99.90
7388;DHT22;3735;50.136;11.062;2023-04-29T02:06:50;11.30;99.90
7388;DHT22;3735;50.136;11.062;2023-04-29T02:09:19;11.30;99.90
7388;DHT22;3735;50.136;11.062;2023-04-29T02:11:45;11.20;99.90
7388;DHT22;3735;50.136;11.062;2023-04-29T02:14:10;11.20;99.90
7388;DHT22;3735;50.136;11.062;2023-04-29T02:16:36;11.20;99.90
7388;DHT22;3735;50.136;11.062;2023-04-29T02:19:02;11.20;99.90
7388;DHT22;3735;50.136;11.062;2023-04-29T02:21:28;11.30;99.90
7388;DHT22;3735;50.136;11.062;2023-04-29T02:23:54;11.40;99.90
7388;DHT22;3735;50.136;11.062;2023-04-29T02:26:20;11.40;99.90
7388;DHT22;3735;50.136;11.062;2023-04-29T02:28:45;11.40;99.90
7388;DHT22;3735;50.136;11.062;2023-04-29T02:31:11;11.40;99.90
7388;DHT22;3735;50.136;11.062;2023-04-29T02:33:38;11.40;99.90
7388;DHT22;3735;50.136;11.062;2023-04-29T02:36:04;11.40;99.90
7388;DHT22;3735;50.136;11.062;2023-04-29T02:38:30;11.30;99.90
7388;DHT22;3735;50.136;11.062;2023-04-29T02:40:55;11.30;99.90
7388;DHT22;3735;50.136;11.062;2023-04-29T02:43:21;11.30;99.90
7388;DHT22;3735;50.136;11.062;2023-04-29T02:45:47;11.30;99.90
7388;DHT22;3735;50.136;11.062;2023-04-29T02:48:13;11.30;99.90
7388;DHT22;3735;50.136;11.062;2023-04-29T02:50:39;11.30;99.90
7388;DHT22;3735;50.136;11.062;2023-04-29T02:53:05;11.30;99.90
7388;DHT22;3735;50.136;11.062;2023-04-29T02:55:30;11.30;99.90
7388;DHT22;3735;50.136;11.062;2023-04-29T02:57:56;11.30;99.90
7388;DHT22;3735;50.136;11.062;2023-04-29T03:00:22;11.30;99.90
7388;DHT22;3735;50.136;11.062;2023-04-29T03:02:48;11.20;99.90
7388;DHT22;3735;50.136;11.062;2023-04-29T03:05:14;11.20;99.90
7388;DHT22;3735;50.136;11.062;2023-04-29T03:07:39;11.20;99.90
7388;DHT22;3735;50.136;11.062;2023-04-29T03:10:06;11.20;99.90
7388;DHT22;3735;50.136;11.062;2023-04-29T03:12:32;11.20;99.90
7388;DHT22;3735;50.136;11.062;2023-04-29T03:14:59;11.20;99.90
7388;DHT22;3735;50.136;11.062;2023-04-29T03:17:24;11.20;99.90
7388;DHT22;3735;50.136;11.062;2023-04-29T03:19:51;11.10;99.90
7388;DHT22;3735;50.136;11.062;2023-04-29T03:22:18;11.10;99.90
7388;DHT22;3735;50.136;11.062;2023-04-29T03:24:44;11.10;99.90
7388;DHT22;3735;50.136;11.062;2023-04-29T03:27:10;11.10;99.90
7388;DHT22;3735;50.136;11.062;2023-04-29T03:29:35;11.00;99.90
7388;DHT22;3735;50.136;11.062;2023-04-29T03:32:02;11.00;99.90
7388;DHT22;3735;50.136;11.062;2023-04-29T03:34:27;11.00;99.90
7388;DHT22;3735;50.136;11.062;2023-04-29T03:36:54;11.00;99.90
7388;DHT22;3735;50.136;11.062;2023-04-29T03:39:19;11.00;99.90
7388;DHT22;3735;50.136;11.062;2023-04-29T03:41:46;11.00;99.90
7388;DHT22;3735;50.136;11.062;2023-04-29T03:44:12;11.00;99.90
7388;DHT22;3735;50.136;11.062;2023-04-29T03:46:38;10.90;99.90
7388;DHT22;3735;50.136;11.062;2023-04-29T03:49:04;10.90;99.90
7388;DHT22;3735;50.136;11.062;2023-04-29T03:51:29;11.00;99.90
7388;DHT22;3735;50.136;11.062;2023-04-29T03:53:56;11.00;99.90
7388;DHT22;3735;50.136;11.062;2023-04-29T03:56:22;11.00;99.90
7388;DHT22;3735;50.136;11.062;2023-04-29T03:58:50;11.00;99.90
7388;DHT22;3735;50.136;11.062;2023-04-29T04:01:16;11.00;99.90
7388;DHT22;3735;50.136;11.062;2023-04-29T04:03:42;11.00;99.90
7388;DHT22;3735;50.136;11.062;2023-04-29T04:06:08;11.00;99.90
7388;DHT22;3735;50.136;11.062;2023-04-29T04:08:34;11.00;99.90
7388;DHT22;3735;50.136;11.062;2023-04-29T04:10:59;11.00;99.90
7388;DHT22;3735;50.136;11.062;2023-04-29T04:13:30;11.00;99.90
7388;DHT22;3735;50.136;11.062;2023-04-29T04:15:57;10.90;99.90
7388;DHT22;3735;50.136;11.062;2023-04-29T04:18:23;10.90;99.90
7388;DHT22;3735;50.136;11.062;2023-04-29T04:20:49;10.90;99.90
7388;DHT22;3735;50.136;11.062;2023-04-29T04:23:14;10.90;99.90
7388;DHT22;3735;50.136;11.062;2023-04-29T04:25:47;10.90;99.90
7388;DHT22;3735;50.136;11.062;2023-04-29T04:28:13;10.90;99.90
7388;DHT22;3735;50.136;11.062;2023-04-29T04:30:40;10.90;99.90
7388;DHT22;3735;50.136;11.062;2023-04-29T04:33:07;10.90;99.90
7388;DHT22;3735;50.136;11.062;2023-04-29T04:35:33;10.90;99.90
7388;DHT22;3735;50.136;11.062;2023-04-29T04:37:58;10.90;99.90
7388;DHT22;3735;50.136;11.062;2023-04-29T04:40:24;10.90;99.90
7388;DHT22;3735;50.136;11.062;2023-04-29T04:42:50;10.90;99.90
7388;DHT22;3735;50.136;11.062;2023-04-29T04:45:16;11.00;99.90
7388;DHT22;3735;50.136;11.062;2023-04-29T04:47:42;11.00;99.90
7388;DHT22;3735;50.136;11.062;2023-04-29T04:50:08;11.00;99.90
7388;DHT22;3735;50.136;11.062;2023-04-29T04:52:34;11.10;99.90
7388;DHT22;3735;50.136;11.062;2023-04-29T04:55:00;11.10;99.90
7388;DHT22;3735;50.136;11.062;2023-04-29T04:57:26;11.10;99.90
7388;DHT22;3735;50.136;11.062;2023-04-29T04:59:51;11.10;99.90
7388;DHT22;3735;50.136;11.062;2023-04-29T05:02:17;11.20;99.90
7388;DHT22;3735;50.136;11.062;2023-04-29T05:04:43;11.20;99.90
7388;DHT22;3735;50.136;11.062;2023-04-29T05:07:09;11.30;99.90
7388;DHT22;3735;50.136;11.062;2023-04-29T05:09:35;11.30;99.90
7388;DHT22;3735;50.136;11.062;2023-04-29T05:12:02;11.30;99.90
7388;DHT22;3735;50.136;11.062;2023-04-29T05:14:28;11.40;99.90
7388;DHT22;3735;50.136;11.062;2023-04-29T05:17:00;11.50;99.90
7388;DHT22;3735;50.136;11.062;2023-04-29T05:19:26;11.50;99.90
7388;DHT22;3735;50.136;11.062;2023-04-29T05:21:51;11.60;99.90
7388;DHT22;3735;50.136;11.062;2023-04-29T05:24:17;11.70;99.90
7388;DHT22;3735;50.136;11.062;2023-04-29T05:26:43;11.80;99.90
7388;DHT22;3735;50.136;11.062;2023-04-29T05:29:10;11.80;99.90
7388;DHT22;3735;50.136;11.062;2023-04-29T05:31:36;11.80;99.90
7388;DHT22;3735;50.136;11.062;2023-04-29T05:34:05;11.80;99.90
7388;DHT22;3735;50.136;11.062;2023-04-29T05:36:31;11.90;99.90
7388;DHT22;3735;50.136;11.062;2023-04-29T05:38:57;11.90;99.90
7388;DHT22;3735;50.136;11.062;2023-04-29T05:41:23;11.90;99.90
7388;DHT22;3735;50.136;11.062;2023-04-29T05:43:50;12.00;99.90
7388;DHT22;3735;50.136;11.062;2023-04-29T05:46:16;12.00;99.90
7388;DHT22;3735;50.136;11.062;2023-04-29T05:48:41;12.00;99.90
7388;DHT22;3735;50.136;11.062;2023-04-29T05:51:07;12.10;99.90
7388;DHT22;3735;50.136;11.062;2023-04-29T05:53:33;12.20;99.90
7388;DHT22;3735;50.136;11.062;2023-04-29T05:56:00;12.30;99.90
7388;DHT22;3735;50.136;11.062;2023-04-29T05:58:30;12.40;99.90
7388;DHT22;3735;50.136;11.062;2023-04-29T06:00:56;12.60;99.90
7388;DHT22;3735;50.136;11.062;2023-04-29T06:03:22;12.60;99.90
7388;DHT22;3735;50.136;11.062;2023-04-29T06:05:48;12.80;99.90
7388;DHT22;3735;50.136;11.062;2023-04-29T06:08:14;13.00;99.90
7388;DHT22;3735;50.136;11.062;2023-04-29T06:10:40;13.10;99.90
7388;DHT22;3735;50.136;11.062;2023-04-29T06:13:05;13.20;99.90
7388;DHT22;3735;50.136;11.062;2023-04-29T06:15:31;13.30;99.90
7388;DHT22;3735;50.136;11.062;2023-04-29T06:17:57;13.40;99.90
7388;DHT22;3735;50.136;11.062;2023-04-29T06:20:23;13.50;99.90
7388;DHT22;3735;50.136;11.062;2023-04-29T06:22:49;13.60;99.90
7388;DHT22;3735;50.136;11.062;2023-04-29T06:25:15;13.60;99.90
7388;DHT22;3735;50.136;11.062;2023-04-29T06:27:40;13.70;99.90
7388;DHT22;3735;50.136;11.062;2023-04-29T06:30:07;13.80;99.90
7388;DHT22;3735;50.136;11.062;2023-04-29T06:32:33;13.90;99.90
7388;DHT22;3735;50.136;11.062;2023-04-29T06:34:59;14.20;99.90
7388;DHT22;3735;50.136;11.062;2023-04-29T06:37:25;14.40;99.90
7388;DHT22;3735;50.136;11.062;2023-04-29T06:39:53;14.50;99.90
7388;DHT22;3735;50.136;11.062;2023-04-29T06:42:18;14.60;99.90
7388;DHT22;3735;50.136;11.062;2023-04-29T06:44:44;14.60;99.90
7388;DHT22;3735;50.136;11.062;2023-04-29T06:47:10;14.70;99.90
7388;DHT22;3735;50.136;11.062;2023-04-29T06:49:36;14.70;99.90
7388;DHT22;3735;50.136;11.062;2023-04-29T06:52:01;14.90;99.90
7388;DHT22;3735;50.136;11.062;2023-04-29T06:54:27;15.10;99.90
7388;DHT22;3735;50.136;11.062;2023-04-29T06:56:53;15.50;99.90
7388;DHT22;3735;50.136;11.062;2023-04-29T06:59:19;15.80;99.90
7388;DHT22;3735;50.136;11.062;2023-04-29T07:01:45;16.30;99.90
7388;DHT22;3735;50.136;11.062;2023-04-29T07:04:10;16.60;99.90
7388;DHT22;3735;50.136;11.062;2023-04-29T07:06:37;16.90;99.90
7388;DHT22;3735;50.136;11.062;2023-04-29T07:09:02;17.10;99.90
7388;DHT22;3735;50.136;11.062;2023-04-29T07:11:28;16.90;99.90
7388;DHT22;3735;50.136;11.062;2023-04-29T07:13:54;16.80;99.90
7388;DHT22;3735;50.136;11.062;2023-04-29T07:16:20;16.70;99.90
7388;DHT22;3735;50.136;11.062;2023-04-29T07:18:46;16.60;99.90
7388;DHT22;3735;50.136;11.062;2023-04-29T07:21:13;16.70;99.90
7388;DHT22;3735;50.136;11.062;2023-04-29T07:23:39;16.90;99.90
7388;DHT22;3735;50.136;11.062;2023-04-29T07:26:12;17.60;99.90
7388;DHT22;3735;50.136;11.062;2023-04-29T07:28:40;18.00;99.90
7388;DHT22;3735;50.136;11.062;2023-04-29T07:31:07;18.00;99.90
7388;DHT22;3735;50.136;11.062;2023-04-29T07:33:33;17.90;99.90
7388;DHT22;3735;50.136;11.062;2023-04-29T07:36:00;17.60;99.90
7388;DHT22;3735;50.136;11.062;2023-04-29T07:38:27;17.00;99.90
7388;DHT22;3735;50.136;11.062;2023-04-29T07:40:54;16.60;99.90
7388;DHT22;3735;50.136;11.062;2023-04-29T07:43:20;16.30;99.90
7388;DHT22;3735;50.136;11.062;2023-04-29T07:45:46;16.10;99.90
7388;DHT22;3735;50.136;11.062;2023-04-29T07:48:12;16.00;99.90
7388;DHT22;3735;50.136;11.062;2023-04-29T07:50:38;16.00;99.90
7388;DHT22;3735;50.136;11.062;2023-04-29T07:53:05;16.10;99.90
7388;DHT22;3735;50.136;11.062;2023-04-29T07:55:31;16.20;99.90
7388;DHT22;3735;50.136;11.062;2023-04-29T07:57:57;16.60;99.90
7388;DHT22;3735;50.136;11.062;2023-04-29T08:00:23;16.80;99.90
7388;DHT22;3735;50.136;11.062;2023-04-29T08:02:51;16.70;99.90
7388;DHT22;3735;50.136;11.062;2023-04-29T08:05:17;16.50;99.90
7388;DHT22;3735;50.136;11.062;2023-04-29T08:07:43;16.50;99.90
7388;DHT22;3735;50.136;11.062;2023-04-29T08:10:09;16.40;99.90
7388;DHT22;3735;50.136;11.062;2023-04-29T08:12:35;16.50;99.90
7388;DHT22;3735;50.136;11.062;2023-04-29T08:15:01;16.80;99.90
7388;DHT22;3735;50.136;11.062;2023-04-29T08:17:27;17.40;99.90
7388;DHT22;3735;50.136;11.062;2023-04-29T08:19:52;18.10;99.90
7388;DHT22;3735;50.136;11.062;2023-04-29T08:22:19;18.20;99.90
7388;DHT22;3735;50.136;11.062;2023-04-29T08:24:45;18.00;99.90
7388;DHT22;3735;50.136;11.062;2023-04-29T08:27:10;17.60;99.90
7388;DHT22;3735;50.136;11.062;2023-04-29T08:29:36;17.20;99.90
7388;DHT22;3735;50.136;11.062;2023-04-29T08:32:02;16.70;99.90
7388;DHT22;3735;50.136;11.062;2023-04-29T08:34:28;16.30;99.90
7388;DHT22;3735;50.136;11.062;2023-04-29T08:36:56;15.90;99.90
7388;DHT22;3735;50.136;11.062;2023-04-29T08:39:22;15.60;99.90
7388;DHT22;3735;50.136;11.062;2023-04-29T08:41:47;15.20;99.90
7388;DHT22;3735;50.136;11.062;2023-04-29T08:44:15;14.80;99.90
7388;DHT22;3735;50.136;11.062;2023-04-29T08:46:46;14.20;99.90
7388;DHT22;3735;50.136;11.062;2023-04-29T08:49:12;13.70;99.90
7388;DHT22;3735;50.136;11.062;2023-04-29T08:51:38;13.20;99.90
7388;DHT22;3735;50.136;11.062;2023-04-29T08:54:04;12.90;99.90
7388;DHT22;3735;50.136;11.062;2023-04-29T08:56:31;12.60;99.90
7388;DHT22;3735;50.136;11.062;2023-04-29T08:58:58;12.50;99.90
7388;DHT22;3735;50.136;11.062;2023-04-29T09:01:27;12.30;99.90
7388;DHT22;3735;50.136;11.062;2023-04-29T09:04:08;12.20;99.90
7388;DHT22;3735;50.136;11.062;2023-04-29T09:06:44;12.20;99.90
7388;DHT22;3735;50.136;11.062;2023-04-29T09:09:11;12.30;99.90
7388;DHT22;3735;50.136;11.062;2023-04-29T09:11:39;12.50;99.90
7388;DHT22;3735;50.136;11.062;2023-04-29T09:14:04;12.70;99.90
7388;DHT22;3735;50.136;11.062;2023-04-29T09:16:30;12.60;99.90
7388;DHT22;3735;50.136;11.062;2023-04-29T09:18:56;12.60;99.90
7388;DHT22;3735;50.136;11.062;2023-04-29T09:21:24;12.60;99.90
7388;DHT22;3735;50.136;11.062;2023-04-29T09:23:56;12.60;99.90
7388;DHT22;3735;50.136;11.062;2023-04-29T09:26:23;12.50;99.90
7388;DHT22;3735;50.136;11.062;2023-04-29T09:29:10;12.60;99.90
7388;DHT22;3735;50.136;11.062;2023-04-29T09:31:41;12.70;99.90
7388;DHT22;3735;50.136;11.062;2023-04-29T09:34:07;12.90;99.90
7388;DHT22;3735;50.136;11.062;2023-04-29T09:36:40;13.20;99.90
7388;DHT22;3735;50.136;11.062;2023-04-29T09:39:07;13.40;99.90
7388;DHT22;3735;50.136;11.062;2023-04-29T09:42:00;13.50;99.90
7388;DHT22;3735;50.136;11.062;2023-04-29T09:44:29;13.80;99.90
7388;DHT22;3735;50.136;11.062;2023-04-29T09:46:58;14.10;99.90
7388;DHT22;3735;50.136;11.062;2023-04-29T09:49:37;14.50;99.90
7388;DHT22;3735;50.136;11.062;2023-04-29T09:52:10;14.90;99.90
7388;DHT22;3735;50.136;11.062;2023-04-29T09:54:40;15.20;99.90
7388;DHT22;3735;50.136;11.062;2023-04-29T09:57:09;15.40;99.90
7388;DHT22;3735;50.136;11.062;2023-04-29T09:59:38;15.80;99.90
7388;DHT22;3735;50.136;11.062;2023-04-29T10:02:15;16.00;99.90
7388;DHT22;3735;50.136;11.062;2023-04-29T10:04:49;15.90;99.90
7388;DHT22;3735;50.136;11.062;2023-04-29T10:07:18;15.90;99.90
7388;DHT22;3735;50.136;11.062;2023-04-29T10:09:46;15.80;99.90
7388;DHT22;3735;50.136;11.062;2023-04-29T10:12:17;15.70;99.90
7388;DHT22;3735;50.136;11.062;2023-04-29T10:14:53;15.70;99.90
7388;DHT22;3735;50.136;11.062;2023-04-29T10:17:42;15.60;99.90
7388;DHT22;3735;50.136;11.062;2023-04-29T10:20:13;15.70;99.90
7388;DHT22;3735;50.136;11.062;2023-04-29T10:22:48;15.80;99.90
7388;DHT22;3735;50.136;11.062;2023-04-29T10:25:17;15.80;99.90
7388;DHT22;3735;50.136;11.062;2023-04-29T10:27:45;15.60;99.90
7388;DHT22;3735;50.136;11.062;2023-04-29T10:30:13;15.60;99.90
7388;DHT22;3735;50.136;11.062;2023-04-29T10:32:43;15.60;99.90
7388;DHT22;3735;50.136;11.062;2023-04-29T10:35:12;15.90;99.90
7388;DHT22;3735;50.136;11.062;2023-04-29T10:37:39;16.20;99.90
7388;DHT22;3735;50.136;11.062;2023-04-29T10:40:27;16.50;99.90
7388;DHT22;3735;50.136;11.062;2023-04-29T10:42:59;16.60;99.90
7388;DHT22;3735;50.136;11.062;2023-04-29T10:45:26;16.50;99.90
7388;DHT22;3735;50.136;11.062;2023-04-29T10:53:19;16.20;99.90
7388;DHT22;3735;50.136;11.062;2023-04-29T10:55:55;16.20;99.90
7388;DHT22;3735;50.136;11.062;2023-04-29T11:01:04;16.40;99.90
7388;DHT22;3735;50.136;11.062;2023-04-29T11:04:00;16.50;99.90
7388;DHT22;3735;50.136;11.062;2023-04-29T11:09:10;16.80;99.90
7388;DHT22;3735;50.136;11.062;2023-04-29T11:11:46;17.00;99.90
7388;DHT22;3735;50.136;11.062;2023-04-29T11:14:14;17.30;99.90
7388;DHT22;3735;50.136;11.062;2023-04-29T11:16:51;17.60;99.90
7388;DHT22;3735;50.136;11.062;2023-04-29T11:19:32;17.90;99.90
7388;DHT22;3735;50.136;11.062;2023-04-29T11:22:13;18.00;99.90
7388;DHT22;3735;50.136;11.062;2023-04-29T11:24:57;17.90;99.90
7388;DHT22;3735;50.136;11.062;2023-04-29T11:29:58;17.90;99.90
7388;DHT22;3735;50.136;11.062;2023-04-29T11:32:30;18.10;99.90
7388;DHT22;3735;50.136;11.062;2023-04-29T11:35:14;18.40;99.90
7388;DHT22;3735;50.136;11.062;2023-04-29T11:37:42;18.70;99.90
7388;DHT22;3735;50.136;11.062;2023-04-29T11:40:10;18.80;99.90
7388;DHT22;3735;50.136;11.062;2023-04-29T11:42:48;18.90;99.90
7388;DHT22;3735;50.136;11.062;2023-04-29T11:45:16;19.00;99.90
7388;DHT22;3735;50.136;11.062;2023-04-29T11:47:44;19.30;99.90
7388;DHT22;3735;50.136;11.062;2023-04-29T11:50:11;19.60;99.90
7388;DHT22;3735;50.136;11.062;2023-04-29T11:52:38;19.80;99.90
7388;DHT22;3735;50.136;11.062;2023-04-29T11:55:08;19.90;99.90
7388;DHT22;3735;50.136;11.062;2023-04-29T11:57:35;20.40;99.90
7388;DHT22;3735;50.136;11.062;2023-04-29T12:00:01;20.70;99.90
7388;DHT22;3735;50.136;11.062;2023-04-29T12:02:31;21.00;99.90
7388;DHT22;3735;50.136;11.062;2023-04-29T12:04:58;21.20;99.90
7388;DHT22;3735;50.136;11.062;2023-04-29T12:07:27;21.30;99.90
7388;DHT22;3735;50.136;11.062;2023-04-29T12:09:54;21.30;99.90
7388;DHT22;3735;50.136;11.062;2023-04-29T12:12:21;21.50;99.90
7388;DHT22;3735;50.136;11.062;2023-04-29T12:14:47;21.70;99.90
7388;DHT22;3735;50.136;11.062;2023-04-29T12:17:14;21.30;99.90
7388;DHT22;3735;50.136;11.062;2023-04-29T12:19:42;20.80;99.90
7388;DHT22;3735;50.136;11.062;2023-04-29T12:22:08;20.60;99.90
7388;DHT22;3735;50.136;11.062;2023-04-29T12:24:35;20.60;99.90
7388;DHT22;3735;50.136;11.062;2023-04-29T12:27:03;20.90;99.90
7388;DHT22;3735;50.136;11.062;2023-04-29T12:29:32;21.00;99.90
7388;DHT22;3735;50.136;11.062;2023-04-29T12:31:58;21.00;99.90
7388;DHT22;3735;50.136;11.062;2023-04-29T12:34:25;21.10;99.90
7388;DHT22;3735;50.136;11.062;2023-04-29T12:36:54;20.90;99.90
7388;DHT22;3735;50.136;11.062;2023-04-29T12:39:22;20.60;99.90
7388;DHT22;3735;50.136;11.062;2023-04-29T12:41:48;20.10;99.90
7388;DHT22;3735;50.136;11.062;2023-04-29T12:44:14;19.40;99.90
7388;DHT22;3735;50.136;11.062;2023-04-29T12:46:40;18.80;99.90
7388;DHT22;3735;50.136;11.062;2023-04-29T12:49:07;18.30;99.90
7388;DHT22;3735;50.136;11.062;2023-04-29T12:51:33;17.60;99.90
7388;DHT22;3735;50.136;11.062;2023-04-29T12:54:04;17.20;99.90
7388;DHT22;3735;50.136;11.062;2023-04-29T12:56:32;16.70;99.90
7388;DHT22;3735;50.136;11.062;2023-04-29T12:59:08;16.30;99.90
7388;DHT22;3735;50.136;11.062;2023-04-29T13:01:35;15.90;99.90
7388;DHT22;3735;50.136;11.062;2023-04-29T13:04:02;15.70;99.90
7388;DHT22;3735;50.136;11.062;2023-04-29T13:06:30;15.40;99.90
7388;DHT22;3735;50.136;11.062;2023-04-29T13:08:56;15.30;99.90
7388;DHT22;3735;50.136;11.062;2023-04-29T13:11:22;15.20;99.90
7388;DHT22;3735;50.136;11.062;2023-04-29T13:13:48;15.30;99.90
7388;DHT22;3735;50.136;11.062;2023-04-29T13:16:14;15.40;99.90
7388;DHT22;3735;50.136;11.062;2023-04-29T13:18:39;15.60;99.90
7388;DHT22;3735;50.136;11.062;2023-04-29T13:21:06;15.90;99.90
7388;DHT22;3735;50.136;11.062;2023-04-29T13:23:31;16.30;99.90
7388;DHT22;3735;50.136;11.062;2023-04-29T13:25:57;16.60;99.90
7388;DHT22;3735;50.136;11.062;2023-04-29T13:28:23;16.90;99.90
7388;DHT22;3735;50.136;11.062;2023-04-29T13:30:49;17.30;99.90
7388;DHT22;3735;50.136;11.062;2023-04-29T13:33:15;17.80;99.90
7388;DHT22;3735;50.136;11.062;2023-04-29T13:35:41;18.10;99.90
7388;DHT22;3735;50.136;11.062;2023-04-29T13:38:07;18.20;99.90
7388;DHT22;3735;50.136;11.062;2023-04-29T13:40:33;18.20;99.90
7388;DHT22;3735;50.136;11.062;2023-04-29T13:42:59;18.20;99.90
7388;DHT22;3735;50.136;11.062;2023-04-29T13:45:25;18.10;99.90
7388;DHT22;3735;50.136;11.062;2023-04-29T13:47:50;17.90;99.90
7388;DHT22;3735;50.136;11.062;2023-04-29T13:50:16;17.60;99.90
7388;DHT22;3735;50.136;11.062;2023-04-29T13:52:42;17.30;99.90
7388;DHT22;3735;50.136;11.062;2023-04-29T13:55:08;17.10;99.90
7388;DHT22;3735;50.136;11.062;2023-04-29T13:57:34;16.90;99.90
7388;DHT22;3735;50.136;11.062;2023-04-29T13:59:59;16.70;99.90
7388;DHT22;3735;50.136;11.062;2023-04-29T14:02:25;16.50;99.90
7388;DHT22;3735;50.136;11.062;2023-04-29T14:04:51;16.50;99.90
7388;DHT22;3735;50.136;11.062;2023-04-29T14:07:17;16.60;99.90
7388;DHT22;3735;50.136;11.062;2023-04-29T14:09:43;16.70;99.90
7388;DHT22;3735;50.136;11.062;2023-04-29T14:12:08;16.70;99.90
7388;DHT22;3735;50.136;11.062;2023-04-29T14:14:35;16.80;99.90
7388;DHT22;3735;50.136;11.062;2023-04-29T14:17:00;17.00;99.90
7388;DHT22;3735;50.136;11.062;2023-04-29T14:19:26;17.10;99.90
7388;DHT22;3735;50.136;11.062;2023-04-29T14:21:52;17.30;99.90
7388;DHT22;3735;50.136;11.062;2023-04-29T14:24:18;17.40;99.90
7388;DHT22;3735;50.136;11.062;2023-04-29T14:26:43;17.50;99.90
7388;DHT22;3735;50.136;11.062;2023-04-29T14:29:09;17.60;99.90
7388;DHT22;3735;50.136;11.062;2023-04-29T14:31:35;17.50;99.90
7388;DHT22;3735;50.136;11.062;2023-04-29T14:34:03;17.40;99.90
7388;DHT22;3735;50.136;11.062;2023-04-29T14:36:29;17.20;99.90
7388;DHT22;3735;50.136;11.062;2023-04-29T14:38:57;16.90;99.90
7388;DHT22;3735;50.136;11.062;2023-04-29T14:41:24;16.60;99.90
7388;DHT22;3735;50.136;11.062;2023-04-29T14:43:50;16.40;99.90
7388;DHT22;3735;50.136;11.062;2023-04-29T14:46:16;16.20;99.90
7388;DHT22;3735;50.136;11.062;2023-04-29T14:48:42;16.10;99.90
7388;DHT22;3735;50.136;11.062;2023-04-29T14:51:08;16.00;99.90
7388;DHT22;3735;50.136;11.062;2023-04-29T14:53:34;15.90;99.90
7388;DHT22;3735;50.136;11.062;2023-04-29T14:58:46;15.80;99.90
7388;DHT22;3735;50.136;11.062;2023-04-29T15:01:11;15.70;99.90
7388;DHT22;3735;50.136;11.062;2023-04-29T15:03:37;15.60;99.90
7388;DHT22;3735;50.136;11.062;2023-04-29T15:06:03;15.60;99.90
7388;DHT22;3735;50.136;11.062;2023-04-29T15:08:30;15.50;99.90
7388;DHT22;3735;50.136;11.062;2023-04-29T15:10:55;15.30;99.90
7388;DHT22;3735;50.136;11.062;2023-04-29T15:13:21;15.10;99.90
7388;DHT22;3735;50.136;11.062;2023-04-29T15:15:48;15.00;99.90
7388;DHT22;3735;50.136;11.062;2023-04-29T15:18:14;15.00;99.90
7388;DHT22;3735;50.136;11.062;2023-04-29T15:20:39;15.00;99.90
7388;DHT22;3735;50.136;11.062;2023-04-29T15:23:05;15.00;99.90
7388;DHT22;3735;50.136;11.062;2023-04-29T15:25:32;14.90;99.90
7388;DHT22;3735;50.136;11.062;2023-04-29T15:27:59;14.90;99.90
7388;DHT22;3735;50.136;11.062;2023-04-29T15:30:26;15.00;99.90
7388;DHT22;3735;50.136;11.062;2023-04-29T15:32:53;15.00;99.90
7388;DHT22;3735;50.136;11.062;2023-04-29T15:35:19;15.10;99.90
7388;DHT22;3735;50.136;11.062;2023-04-29T15:37:45;15.20;99.90
7388;DHT22;3735;50.136;11.062;2023-04-29T15:40:11;15.20;99.90
7388;DHT22;3735;50.136;11.062;2023-04-29T15:42:37;15.20;99.90
7388;DHT22;3735;50.136;11.062;2023-04-29T15:45:03;15.20;99.90
7388;DHT22;3735;50.136;11.062;2023-04-29T15:47:33;15.20;99.90
7388;DHT22;3735;50.136;11.062;2023-04-29T15:49:59;15.20;99.90
7388;DHT22;3735;50.136;11.062;2023-04-29T15:52:25;15.10;99.90
7388;DHT22;3735;50.136;11.062;2023-04-29T15:54:51;15.10;99.90
7388;DHT22;3735;50.136;11.062;2023-04-29T15:57:16;15.00;99.90
7388;DHT22;3735;50.136;11.062;2023-04-29T15:59:42;15.00;99.90
7388;DHT22;3735;50.136;11.062;2023-04-29T16:02:08;15.10;99.90
7388;DHT22;3735;50.136;11.062;2023-04-29T16:04:35;15.10;99.90
7388;DHT22;3735;50.136;11.062;2023-04-29T16:07:02;14.90;99.90
7388;DHT22;3735;50.136;11.062;2023-04-29T16:09:33;14.90;99.90
7388;DHT22;3735;50.136;11.062;2023-04-29T16:12:00;14.70;99.90
7388;DHT22;3735;50.136;11.062;2023-04-29T16:14:27;14.70;99.90